createdAt,value
2018-09-26T00:02:26.748Z,35.84
2018-09-26T00:04:55.129Z,42.25
2018-09-26T00:07:23.527Z,34.84
2018-09-26T00:09:51.877Z,38.08
2018-09-26T00:12:20.352Z,40.16
2018-09-26T00:14:48.689Z,34.23
2018-09-26T00:17:17.098Z,35.06
2018-09-26T00:19:45.500Z,36.51
2018-09-26T00:22:13.885Z,40.65
2018-09-26T00:24:42.237Z,37.85
2018-09-26T00:27:11.155Z,37.92
2018-09-26T00:29:39.528Z,36.53
2018-09-26T00:32:07.831Z,38.85
2018-09-26T00:34:36.163Z,39.10
2018-09-26T00:37:04.566Z,37.69
2018-09-26T00:39:33.113Z,38.74
2018-09-26T00:42:01.554Z,40.57
2018-09-26T00:44:30.127Z,44.58
2018-09-26T00:46:58.612Z,43.27
2018-09-26T00:49:26.955Z,44.03
2018-09-26T00:51:55.381Z,45.39
2018-09-26T00:54:23.898Z,41.36
2018-09-26T00:56:53.318Z,40.44
2018-09-26T00:59:21.564Z,39.28
2018-09-26T01:01:50.016Z,40.43
2018-09-26T01:04:18.312Z,41.31
2018-09-26T01:06:46.640Z,39.42
2018-09-26T01:09:14.971Z,39.07
2018-09-26T01:11:43.428Z,38.33
2018-09-26T01:14:11.732Z,46.40
2018-09-26T01:16:40.264Z,39.07
2018-09-26T01:19:08.658Z,44.05
2018-09-26T01:21:36.996Z,44.66
2018-09-26T01:24:05.340Z,43.92
2018-09-26T01:26:33.730Z,41.47
2018-09-26T01:29:02.034Z,40.33
2018-09-26T01:31:30.345Z,40.93
2018-09-26T01:33:58.668Z,47.58
2018-09-26T01:36:27.148Z,40.08
2018-09-26T01:38:55.571Z,40.69
2018-09-26T01:41:24.496Z,40.87
2018-09-26T01:43:52.801Z,42.02
2018-09-26T01:46:21.141Z,40.64
2018-09-26T01:48:49.520Z,42.09
2018-09-26T01:51:17.878Z,41.14
2018-09-26T01:53:46.322Z,41.63
2018-09-26T01:56:14.642Z,42.10
2018-09-26T01:58:43.680Z,44.24
2018-09-26T02:01:12.029Z,38.50
2018-09-26T02:03:40.384Z,39.27
2018-09-26T02:06:08.748Z,39.92
2018-09-26T02:08:37.151Z,39.73
2018-09-26T02:11:05.457Z,41.66
2018-09-26T02:13:34.035Z,39.14
2018-09-26T02:16:02.422Z,39.72
2018-09-26T02:18:30.849Z,45.79
2018-09-26T02:20:59.206Z,44.72
2018-09-26T02:23:27.558Z,41.76
2018-09-26T02:25:56.620Z,40.18
2018-09-26T02:28:24.981Z,40.44
2018-09-26T02:30:53.333Z,48.90
2018-09-26T02:33:21.678Z,40.84
2018-09-26T02:35:50.092Z,39.70
2018-09-26T02:38:18.519Z,46.98
2018-09-26T02:40:46.804Z,40.21
2018-09-26T02:43:15.158Z,42.11
2018-09-26T02:45:43.481Z,42.26
2018-09-26T02:48:15.974Z,40.48
2018-09-26T02:50:44.319Z,41.71
2018-09-26T02:53:12.639Z,46.41
2018-09-26T02:55:41.226Z,43.00
2018-09-26T02:58:09.663Z,40.33
2018-09-26T03:00:37.985Z,40.66
2018-09-26T03:03:06.293Z,44.84
2018-09-26T03:05:34.667Z,39.83
2018-09-26T03:08:02.988Z,44.72
2018-09-26T03:10:31.276Z,37.20
2018-09-26T03:12:59.726Z,38.42
2018-09-26T03:15:28.114Z,41.17
2018-09-26T03:17:57.035Z,41.97
2018-09-26T03:20:25.336Z,40.58
2018-09-26T03:22:53.815Z,41.64
2018-09-26T03:25:22.155Z,43.86
2018-09-26T03:27:50.476Z,40.10
2018-09-26T03:30:18.948Z,41.53
2018-09-26T03:32:47.437Z,40.78
2018-09-26T03:35:15.793Z,41.28
2018-09-26T03:37:44.156Z,41.14
2018-09-26T03:40:12.504Z,48.90
2018-09-26T03:42:40.911Z,40.21
2018-09-26T03:45:09.302Z,45.05
2018-09-26T03:47:37.648Z,48.43
2018-09-26T03:50:06.314Z,39.77
2018-09-26T03:52:34.648Z,41.84
2018-09-26T03:55:02.995Z,38.39
2018-09-26T03:57:31.312Z,46.39
2018-09-26T03:59:59.719Z,38.24
2018-09-26T04:02:28.033Z,38.03
2018-09-26T04:04:56.871Z,39.04
2018-09-26T04:07:25.353Z,39.84
2018-09-26T04:09:53.671Z,39.75
2018-09-26T04:12:22.761Z,41.72
2018-09-26T04:14:51.096Z,41.40
2018-09-26T04:17:19.460Z,41.64
2018-09-26T04:19:47.824Z,44.01
2018-09-26T04:22:16.260Z,43.82
2018-09-26T04:24:44.585Z,43.57
2018-09-26T04:27:13.021Z,43.23
2018-09-26T04:29:41.365Z,43.52
2018-09-26T04:32:09.760Z,44.02
2018-09-26T04:34:38.459Z,44.35
2018-09-26T04:37:07.112Z,44.68
2018-09-26T04:39:35.435Z,44.36
2018-09-26T04:42:03.755Z,44.55
2018-09-26T04:44:32.213Z,44.56
2018-09-26T04:47:00.791Z,44.55
2018-09-26T04:49:29.151Z,44.46
2018-09-26T04:51:57.599Z,44.99
2018-09-26T04:54:26.070Z,45.35
2018-09-26T04:56:54.547Z,45.76
2018-09-26T04:59:22.962Z,46.08
2018-09-26T05:01:51.402Z,46.02
2018-09-26T05:04:19.882Z,46.09
2018-09-26T05:06:48.263Z,46.50
2018-09-26T05:09:16.714Z,46.91
2018-09-26T05:11:45.008Z,48.80
2018-09-26T05:14:13.291Z,45.94
2018-09-26T05:16:41.730Z,46.27
2018-09-26T05:19:10.106Z,46.84
2018-09-26T05:21:38.720Z,46.40
2018-09-26T05:24:07.080Z,45.98
2018-09-26T05:26:35.462Z,46.82
2018-09-26T05:29:03.910Z,46.20
2018-09-26T05:31:32.588Z,46.58
2018-09-26T05:34:00.892Z,46.61
2018-09-26T05:36:29.270Z,47.51
2018-09-26T05:38:57.788Z,46.74
2018-09-26T05:41:26.153Z,53.83
2018-09-26T05:43:54.545Z,54.89
2018-09-26T05:46:22.967Z,46.40
2018-09-26T05:48:51.325Z,42.57
2018-09-26T05:51:19.716Z,39.14
2018-09-26T06:02:20.897Z,36.59
2018-09-26T06:04:49.234Z,44.97
2018-09-26T06:07:17.623Z,34.34
2018-09-26T06:09:45.942Z,36.88
2018-09-26T06:12:14.273Z,39.51
2018-09-26T06:14:42.572Z,39.12
2018-09-26T06:17:10.907Z,40.39
2018-09-26T06:22:30.161Z,42.31
2018-09-26T06:24:58.474Z,42.55
2018-09-26T06:27:27.055Z,42.50
2018-09-26T06:29:55.376Z,41.64
2018-09-26T06:32:23.724Z,43.08
2018-09-26T06:34:52.321Z,42.69
2018-09-26T06:37:20.885Z,42.16
2018-09-26T06:39:49.215Z,42.25
2018-09-26T06:42:17.590Z,42.32
2018-09-26T06:44:46.065Z,42.18
2018-09-26T06:47:14.418Z,40.31
2018-09-26T06:49:42.769Z,41.36
2018-09-26T06:52:11.114Z,42.98
2018-09-26T06:54:39.583Z,41.32
2018-09-26T06:57:07.891Z,42.40
2018-09-26T06:59:36.282Z,41.66
2018-09-26T07:02:04.670Z,41.86
2018-09-26T07:04:33.031Z,40.67
2018-09-26T07:07:01.527Z,40.09
2018-09-26T07:09:29.872Z,39.19
2018-09-26T07:11:58.116Z,38.36
2018-09-26T07:14:26.491Z,38.34
2018-09-26T07:16:54.972Z,38.52
2018-09-26T07:19:23.326Z,38.19
2018-09-26T07:21:51.758Z,38.50
2018-09-26T07:24:20.136Z,38.57
2018-09-26T07:26:48.585Z,39.86
2018-09-26T07:29:16.891Z,38.04
2018-09-26T07:34:38.748Z,37.18
2018-09-26T07:37:07.700Z,38.02
2018-09-26T07:39:36.870Z,37.20
2018-09-26T07:42:05.218Z,51.96
2018-09-26T07:44:33.666Z,34.76
2018-09-26T07:47:02.023Z,33.65
2018-09-26T07:49:30.329Z,34.35
2018-09-26T07:51:58.673Z,34.29
2018-09-26T07:54:26.977Z,35.88
2018-09-26T07:56:55.288Z,36.33
2018-09-26T07:59:23.640Z,37.15
2018-09-26T08:01:52.282Z,36.05
2018-09-26T08:04:20.726Z,36.44
2018-09-26T08:06:49.118Z,33.86
2018-09-26T08:09:17.394Z,34.34
2018-09-26T08:11:45.898Z,33.93
2018-09-26T08:14:14.161Z,32.65
2018-09-26T08:16:49.239Z,33.09
2018-09-26T08:19:17.707Z,31.98
2018-09-26T08:21:46.032Z,30.90
2018-09-26T08:24:14.408Z,30.57
2018-09-26T08:26:42.672Z,31.15
2018-09-26T08:29:11.000Z,30.34
2018-09-26T08:31:39.388Z,30.46
2018-09-26T08:34:07.815Z,28.47
2018-09-26T08:36:36.101Z,28.40
2018-09-26T08:39:06.828Z,27.66
2018-09-26T08:41:35.280Z,29.34
2018-09-26T08:44:03.746Z,34.49
2018-09-26T08:46:32.114Z,37.23
2018-09-26T08:49:00.524Z,33.07
2018-09-26T08:51:29.232Z,32.64
2018-09-26T08:53:57.569Z,28.86
2018-09-26T08:56:25.934Z,30.52
2018-09-26T08:58:54.294Z,30.53
2018-09-26T09:01:27.996Z,29.45
2018-09-26T09:03:56.433Z,28.59
2018-09-26T09:06:24.892Z,27.21
2018-09-26T09:08:53.215Z,28.33
2018-09-26T09:11:21.529Z,28.54
2018-09-26T09:13:50.021Z,25.20
2018-09-26T09:16:18.409Z,30.71
2018-09-26T09:18:46.679Z,31.15
2018-09-26T09:21:15.221Z,24.80
2018-09-26T09:23:43.580Z,29.71
2018-09-26T09:26:12.083Z,26.22
2018-09-26T09:28:40.338Z,30.90
2018-09-26T09:31:08.631Z,25.96
2018-09-26T09:33:37.078Z,29.19
2018-09-26T09:36:05.798Z,27.91
2018-09-26T09:38:34.096Z,24.24
2018-09-26T09:41:02.546Z,27.93
2018-09-26T09:43:30.846Z,26.55
2018-09-26T09:45:59.178Z,29.22
2018-09-26T09:48:27.597Z,32.12
2018-09-26T09:50:55.983Z,29.83
2018-09-26T09:53:24.333Z,27.84
2018-09-26T09:55:52.674Z,24.77
2018-09-26T09:58:21.750Z,29.44
2018-09-26T10:00:56.299Z,25.20
2018-09-26T10:03:24.610Z,26.07
2018-09-26T10:05:53.233Z,25.03
2018-09-26T10:08:21.790Z,28.71
2018-09-26T10:10:50.261Z,27.51
2018-09-26T10:13:18.569Z,26.93
2018-09-26T10:15:47.027Z,24.48
2018-09-26T10:18:15.292Z,26.94
2018-09-26T10:20:43.576Z,27.67
2018-09-26T10:23:12.003Z,24.72
2018-09-26T10:25:40.308Z,27.20
2018-09-26T10:28:08.614Z,23.92
2018-09-26T10:30:36.973Z,23.50
2018-09-26T10:33:05.320Z,21.05
2018-09-26T10:35:33.741Z,24.37
2018-09-26T10:38:01.982Z,23.64
2018-09-26T10:40:30.947Z,22.94
2018-09-26T10:42:59.347Z,22.88
2018-09-26T10:45:27.978Z,21.12
2018-09-26T10:47:56.295Z,21.93
2018-09-26T10:50:24.918Z,23.38
2018-09-26T10:52:53.307Z,22.64
2018-09-26T10:55:22.706Z,22.65
2018-09-26T10:57:51.117Z,23.68
2018-09-26T11:00:19.442Z,22.57
2018-09-26T11:02:47.790Z,22.07
2018-09-26T11:05:16.115Z,23.68
2018-09-26T11:07:44.515Z,23.74
2018-09-26T11:10:13.028Z,24.65
2018-09-26T11:12:41.339Z,23.58
2018-09-26T11:15:09.783Z,22.84
2018-09-26T11:17:38.034Z,22.98
2018-09-26T11:20:06.875Z,23.20
2018-09-26T11:22:35.169Z,21.95
2018-09-26T11:25:03.460Z,24.68
2018-09-26T11:27:31.901Z,22.69
2018-09-26T11:30:00.221Z,21.31
2018-09-26T11:32:28.616Z,20.43
2018-09-26T11:34:56.977Z,21.87
2018-09-26T11:37:25.416Z,21.56
2018-09-26T11:39:53.908Z,23.55
2018-09-26T11:42:22.434Z,26.82
2018-09-26T11:44:50.919Z,22.51
2018-09-26T11:47:19.165Z,17.62
2018-09-26T11:49:47.487Z,16.87
2018-09-26T11:52:15.835Z,17.91
2018-09-26T11:54:44.104Z,17.01
2018-09-26T11:57:12.414Z,15.95
2018-09-26T11:59:40.769Z,14.70
2018-09-26T12:02:09.116Z,15.97
2018-09-26T12:04:37.434Z,15.60
2018-09-26T12:07:05.814Z,12.86
2018-09-26T12:09:34.076Z,13.00
2018-09-26T12:12:02.402Z,12.18
2018-09-26T12:14:30.728Z,11.66
2018-09-26T12:16:59.081Z,10.57
2018-09-26T12:19:27.607Z,10.70
2018-09-26T12:21:55.826Z,9.80
2018-09-26T12:24:24.146Z,11.04
2018-09-26T12:26:52.585Z,10.35
2018-09-26T12:29:20.875Z,9.69
2018-09-26T12:31:49.512Z,9.53
2018-09-26T12:34:17.805Z,8.97
2018-09-26T12:36:46.321Z,8.67
2018-09-26T12:39:14.620Z,7.05
2018-09-26T12:41:43.086Z,7.11
2018-09-26T12:44:11.431Z,6.46
2018-09-26T12:46:39.707Z,5.54
2018-09-26T12:49:08.133Z,7.23
2018-09-26T12:51:36.776Z,6.57
2018-09-26T12:54:06.094Z,5.73
2018-09-26T12:56:34.251Z,4.31
2018-09-26T12:59:02.576Z,8.15
2018-09-26T13:01:30.895Z,6.28
2018-09-26T13:03:59.217Z,5.31
2018-09-26T13:06:27.580Z,8.81
2018-09-26T13:08:55.890Z,6.56
2018-09-26T13:11:24.153Z,6.62
2018-09-26T13:13:52.482Z,6.91
2018-09-26T13:16:20.931Z,5.54
2018-09-26T13:18:49.290Z,5.52
2018-09-26T13:21:18.494Z,5.72
2018-09-26T13:23:46.986Z,6.32
2018-09-26T13:26:15.243Z,6.16
2018-09-26T13:28:43.667Z,4.78
2018-09-26T13:31:11.990Z,5.41
2018-09-26T13:33:40.291Z,5.70
2018-09-26T13:36:08.796Z,5.19
2018-09-26T13:38:39.034Z,6.31
2018-09-26T13:41:30.566Z,5.31
2018-09-26T13:43:58.830Z,5.16
2018-09-26T13:46:27.181Z,6.99
2018-09-26T13:48:55.417Z,7.33
2018-09-26T13:51:23.800Z,6.28
2018-09-26T13:53:52.225Z,6.36
2018-09-26T13:56:20.564Z,5.78
2018-09-26T13:58:48.943Z,6.10
2018-09-26T14:01:17.603Z,10.75
2018-09-26T14:03:46.680Z,9.61
2018-09-26T14:06:15.371Z,9.58
2018-09-26T14:08:43.631Z,10.47
2018-09-26T14:11:12.328Z,9.05
2018-09-26T14:13:40.662Z,9.91
2018-09-26T14:16:08.938Z,9.47
2018-09-26T14:18:38.204Z,9.90
2018-09-26T14:21:06.846Z,9.80
2018-09-26T14:23:35.138Z,9.26
2018-09-26T14:26:03.534Z,9.13
2018-09-26T14:28:31.905Z,9.54
2018-09-26T14:31:00.425Z,8.85
2018-09-26T14:33:28.759Z,8.91
2018-09-26T14:35:57.044Z,10.36
2018-09-26T14:38:25.422Z,10.33
2018-09-26T14:40:53.694Z,10.69
2018-09-26T14:43:22.018Z,11.41
2018-09-26T14:45:50.685Z,10.40
2018-09-26T14:48:18.918Z,12.09
2018-09-26T14:50:47.225Z,11.72
2018-09-26T14:53:15.642Z,11.32
2018-09-26T14:55:44.146Z,12.25
2018-09-26T14:58:12.476Z,12.32
2018-09-26T15:00:41.067Z,12.27
2018-09-26T15:03:09.394Z,19.12
2018-09-26T15:05:37.687Z,17.70
2018-09-26T15:08:06.140Z,19.35
2018-09-26T15:10:34.472Z,19.95
2018-09-26T15:13:02.783Z,20.20
2018-09-26T15:15:31.069Z,19.08
2018-09-26T15:17:59.434Z,19.88
2018-09-26T15:20:28.152Z,18.47
2018-09-26T15:22:56.723Z,19.85
2018-09-26T15:25:24.981Z,17.70
2018-09-26T15:27:53.596Z,20.24
2018-09-26T15:30:22.012Z,16.74
2018-09-26T15:32:50.322Z,19.20
2018-09-26T15:35:18.748Z,19.74
2018-09-26T15:37:47.031Z,20.12
2018-09-26T15:40:15.531Z,18.62
2018-09-26T15:42:44.199Z,19.24
2018-09-26T15:45:12.628Z,14.20
2018-09-26T15:47:41.081Z,15.21
2018-09-26T15:50:09.821Z,16.75
2018-09-26T15:52:38.687Z,14.52
2018-09-26T15:55:07.100Z,15.90
2018-09-26T15:57:35.803Z,16.02
2018-09-26T16:00:04.356Z,15.17
2018-09-26T16:02:32.746Z,17.98
2018-09-26T16:05:01.151Z,16.03
2018-09-26T16:07:32.435Z,14.09
2018-09-26T16:10:00.757Z,14.05
2018-09-26T16:12:29.126Z,14.61
2018-09-26T16:14:57.540Z,16.20
2018-09-26T16:17:25.858Z,15.64
2018-09-26T16:19:54.171Z,15.63
2018-09-26T16:22:22.553Z,15.16
2018-09-26T16:24:50.842Z,15.32
2018-09-26T16:27:19.114Z,15.40
2018-09-26T16:29:47.434Z,15.73
2018-09-26T16:32:15.824Z,15.44
2018-09-26T16:34:44.086Z,15.93
2018-09-26T16:37:12.340Z,17.20
2018-09-26T16:39:40.876Z,17.85
2018-09-26T16:42:09.197Z,18.80
2018-09-26T16:44:37.525Z,20.10
2018-09-26T16:47:06.227Z,20.75
2018-09-26T16:49:34.536Z,22.68
2018-09-26T16:52:02.936Z,22.43
2018-09-26T16:54:31.359Z,22.27
2018-09-26T16:56:59.966Z,22.88
2018-09-26T16:59:28.308Z,22.50
2018-09-26T17:01:56.640Z,22.95
2018-09-26T17:04:25.230Z,23.97
2018-09-26T17:06:53.470Z,24.41
2018-09-26T17:09:21.844Z,24.52
2018-09-26T17:11:50.135Z,25.32
2018-09-26T17:14:18.465Z,25.87
2018-09-26T17:16:46.749Z,25.61
2018-09-26T17:19:14.984Z,25.50
2018-09-26T17:21:43.609Z,26.14
2018-09-26T17:24:12.091Z,25.32
2018-09-26T17:26:41.022Z,26.18
2018-09-26T17:29:09.546Z,26.09
2018-09-26T17:31:37.812Z,26.25
2018-09-26T17:34:06.146Z,26.72
2018-09-26T17:36:34.402Z,27.13
2018-09-26T17:39:02.756Z,27.50
2018-09-26T17:41:31.255Z,28.19
2018-09-26T17:43:59.563Z,28.38
2018-09-26T17:46:27.948Z,27.75
2018-09-26T17:48:56.480Z,28.04
2018-09-26T17:51:24.840Z,27.93
2018-09-26T17:53:53.111Z,28.23
2018-09-26T17:56:21.663Z,28.99
2018-09-26T17:58:50.056Z,29.07
2018-09-26T18:01:18.412Z,28.31
2018-09-26T18:03:46.762Z,28.93
2018-09-26T18:06:15.368Z,29.17
2018-09-26T18:08:43.694Z,30.00
2018-09-26T18:11:12.026Z,30.28
2018-09-26T18:13:41.040Z,31.34
2018-09-26T18:16:09.524Z,31.33
2018-09-26T18:18:37.969Z,31.50
2018-09-26T18:21:06.380Z,33.31
2018-09-26T18:23:34.877Z,31.99
2018-09-26T18:26:03.334Z,32.55
2018-09-26T18:28:32.020Z,32.21
2018-09-26T18:31:00.456Z,32.33
2018-09-26T18:33:28.867Z,31.99
2018-09-26T18:35:57.348Z,32.29
2018-09-26T18:38:25.771Z,32.53
2018-09-26T18:40:54.070Z,33.05
2018-09-26T18:43:22.520Z,32.69
2018-09-26T18:45:50.813Z,32.72
2018-09-26T18:48:19.108Z,33.04
2018-09-26T18:50:47.392Z,34.24
2018-09-26T18:53:15.726Z,33.98
2018-09-26T18:55:44.020Z,34.19
2018-09-26T18:58:12.462Z,34.61
2018-09-26T19:00:40.991Z,33.91
2018-09-26T19:03:09.350Z,34.16
2018-09-26T19:05:37.700Z,33.98
2018-09-26T19:08:06.021Z,35.08
2018-09-26T19:10:34.395Z,34.63
2018-09-26T19:13:02.716Z,35.23
2018-09-26T19:15:31.109Z,34.87
2018-09-26T19:17:59.401Z,34.03
2018-09-26T19:20:27.729Z,34.68
2018-09-26T19:22:56.084Z,33.97
2018-09-26T19:25:24.467Z,33.94
2018-09-26T19:27:52.902Z,34.37
2018-09-26T19:30:21.143Z,35.21
2018-09-26T19:32:49.590Z,34.22
2018-09-26T19:35:17.919Z,34.14
2018-09-26T19:37:46.419Z,35.21
2018-09-26T19:40:14.764Z,35.68
2018-09-26T19:42:43.060Z,35.11
2018-09-26T19:45:11.486Z,35.47
2018-09-26T19:47:39.799Z,35.36
2018-09-26T19:50:08.232Z,35.45
2018-09-26T19:52:36.635Z,36.64
2018-09-26T19:55:05.043Z,36.45
2018-09-26T19:57:33.487Z,36.21
2018-09-26T20:00:01.896Z,37.06
2018-09-26T20:02:30.295Z,37.08
2018-09-26T20:04:58.981Z,36.86
2018-09-26T20:07:27.289Z,36.71
2018-09-26T20:09:55.655Z,37.68
2018-09-26T20:12:24.021Z,37.45
2018-09-26T20:14:52.322Z,38.77
2018-09-26T20:17:20.785Z,38.77
2018-09-26T20:19:49.315Z,39.83
2018-09-26T20:22:17.600Z,40.09
2018-09-26T20:24:45.889Z,40.71
2018-09-26T20:27:14.499Z,41.69
2018-09-26T20:29:42.839Z,42.53
2018-09-26T20:32:10.972Z,42.72
2018-09-26T20:34:39.350Z,42.25
2018-09-26T20:37:08.206Z,42.18
2018-09-26T20:39:36.445Z,42.77
2018-09-26T20:42:04.792Z,41.95
2018-09-26T20:44:33.170Z,41.72
2018-09-26T20:47:01.516Z,41.42
2018-09-26T20:49:29.876Z,41.94
2018-09-26T20:51:58.221Z,41.87
2018-09-26T20:54:26.605Z,42.07
2018-09-26T20:56:54.905Z,42.16
2018-09-26T20:59:23.196Z,43.06
2018-09-26T21:01:51.629Z,43.54
2018-09-26T21:04:19.957Z,44.11
2018-09-26T21:06:48.420Z,43.60
2018-09-26T21:09:16.810Z,43.75
2018-09-26T21:11:45.206Z,43.07
2018-09-26T21:14:13.603Z,43.40
2018-09-26T21:16:41.962Z,43.52
2018-09-26T21:19:10.279Z,43.85
2018-09-26T21:21:38.630Z,43.70
2018-09-26T21:24:06.965Z,43.79
2018-09-26T21:26:35.346Z,43.92
2018-09-26T21:29:04.710Z,43.84
2018-09-26T21:31:34.091Z,43.68
2018-09-26T21:34:03.219Z,43.53
2018-09-26T21:36:31.535Z,43.00
2018-09-26T21:39:00.126Z,43.59
2018-09-26T21:41:28.519Z,43.79
2018-09-26T21:43:56.812Z,42.89
2018-09-26T21:46:25.097Z,43.38
2018-09-26T21:48:53.408Z,44.30
2018-09-26T21:51:22.612Z,44.23
2018-09-26T21:53:51.237Z,44.03
2018-09-26T21:56:19.548Z,45.23
2018-09-26T21:58:47.835Z,44.15
2018-09-26T22:01:17.270Z,43.92
2018-09-26T22:03:45.672Z,44.07
2018-09-26T22:06:13.995Z,43.62
2018-09-26T22:08:42.334Z,43.41
2018-09-26T22:11:10.754Z,44.09
2018-09-26T22:13:39.080Z,43.50
2018-09-26T22:16:07.340Z,44.83
2018-09-26T22:18:35.721Z,44.53
2018-09-26T22:21:04.289Z,44.52
2018-09-26T22:23:32.708Z,44.66
2018-09-26T22:26:01.007Z,43.81
2018-09-26T22:28:29.352Z,43.76
2018-09-26T22:30:57.706Z,45.05
2018-09-26T22:33:26.181Z,45.15
2018-09-26T22:35:54.557Z,45.23
2018-09-26T22:38:22.892Z,44.91
2018-09-26T22:40:51.244Z,45.12
2018-09-26T22:43:19.618Z,45.15
2018-09-26T22:45:47.907Z,44.91
2018-09-26T22:48:16.901Z,45.58
2018-09-26T22:50:45.194Z,46.54
2018-09-26T22:53:13.527Z,46.06
2018-09-26T22:55:41.894Z,47.10
2018-09-26T22:58:10.229Z,46.91
2018-09-26T23:00:38.544Z,47.29
2018-09-26T23:03:07.125Z,46.71
2018-09-26T23:05:35.423Z,45.75
2018-09-26T23:08:03.722Z,45.38
2018-09-26T23:10:32.207Z,46.32
2018-09-26T23:13:00.578Z,45.84
2018-09-26T23:15:29.022Z,46.49
2018-09-26T23:17:57.446Z,46.98
2018-09-26T23:20:25.775Z,46.83
2018-09-26T23:22:54.145Z,46.30
2018-09-26T23:25:22.589Z,46.94
2018-09-26T23:27:50.903Z,47.27
2018-09-26T23:30:19.196Z,47.75
2018-09-26T23:32:47.764Z,46.93
2018-09-26T23:35:16.057Z,47.10
2018-09-26T23:37:44.463Z,46.56
2018-09-26T23:40:12.837Z,47.26
2018-09-26T23:42:41.098Z,47.53
2018-09-26T23:45:09.619Z,48.36
2018-09-26T23:47:37.919Z,48.39
2018-09-26T23:50:06.499Z,48.67
2018-09-26T23:52:34.994Z,47.84
2018-09-26T23:55:03.337Z,47.78
2018-09-26T23:57:31.696Z,48.17
